sensor_id;sensor_type;location;lat;lon;timestamp;P1;durP1;ratioP1;P2;durP2;ratioP2
39750;SDS011;37579;51.074;17.004;2023-04-24T00:00:09;2.88;;;1.58;;
39750;SDS011;37579;51.074;17.004;2023-04-24T00:02:36;2.75;;;1.70;;
39750;SDS011;37579;51.074;17.004;2023-04-24T00:05:07;2.88;;;1.58;;
39750;SDS011;37579;51.074;17.004;2023-04-24T00:07:34;2.38;;;1.95;;
39750;SDS011;37579;51.074;17.004;2023-04-24T00:10:00;2.17;;;1.70;;
39750;SDS011;37579;51.074;17.004;2023-04-24T00:12:26;2.58;;;1.58;;
39750;SDS011;37579;51.074;17.004;2023-04-24T00:14:52;3.28;;;1.40;;
39750;SDS011;37579;51.074;17.004;2023-04-24T00:17:18;3.00;;;1.90;;
39750;SDS011;37579;51.074;17.004;2023-04-24T00:19:47;2.00;;;1.52;;
39750;SDS011;37579;51.074;17.004;2023-04-24T00:22:16;2.65;;;1.80;;
39750;SDS011;37579;51.074;17.004;2023-04-24T00:24:42;2.10;;;1.60;;
39750;SDS011;37579;51.074;17.004;2023-04-24T00:27:08;2.15;;;1.80;;
39750;SDS011;37579;51.074;17.004;2023-04-24T00:29:34;1.80;;;1.40;;
39750;SDS011;37579;51.074;17.004;2023-04-24T00:32:00;2.38;;;1.85;;
39750;SDS011;37579;51.074;17.004;2023-04-24T00:34:26;3.03;;;1.65;;
39750;SDS011;37579;51.074;17.004;2023-04-24T00:36:51;2.00;;;1.60;;
39750;SDS011;37579;51.074;17.004;2023-04-24T00:39:18;2.10;;;1.42;;
39750;SDS011;37579;51.074;17.004;2023-04-24T00:41:45;2.65;;;1.58;;
39750;SDS011;37579;51.074;17.004;2023-04-24T00:44:12;2.53;;;1.52;;
39750;SDS011;37579;51.074;17.004;2023-04-24T00:46:38;2.25;;;1.67;;
39750;SDS011;37579;51.074;17.004;2023-04-24T00:49:04;2.22;;;1.83;;
39750;SDS011;37579;51.074;17.004;2023-04-24T00:51:31;2.50;;;1.73;;
39750;SDS011;37579;51.074;17.004;2023-04-24T00:53:58;1.92;;;1.55;;
39750;SDS011;37579;51.074;17.004;2023-04-24T00:56:25;1.92;;;1.40;;
39750;SDS011;37579;51.074;17.004;2023-04-24T00:58:51;2.78;;;1.35;;
39750;SDS011;37579;51.074;17.004;2023-04-24T01:01:18;2.60;;;1.70;;
39750;SDS011;37579;51.074;17.004;2023-04-24T01:03:51;2.15;;;1.63;;
39750;SDS011;37579;51.074;17.004;2023-04-24T01:06:18;2.53;;;1.73;;
39750;SDS011;37579;51.074;17.004;2023-04-24T01:08:45;2.40;;;1.60;;
39750;SDS011;37579;51.074;17.004;2023-04-24T01:11:12;2.47;;;1.63;;
39750;SDS011;37579;51.074;17.004;2023-04-24T01:13:38;2.58;;;1.70;;
39750;SDS011;37579;51.074;17.004;2023-04-24T01:16:06;1.92;;;1.60;;
39750;SDS011;37579;51.074;17.004;2023-04-24T01:18:33;4.10;;;1.80;;
39750;SDS011;37579;51.074;17.004;2023-04-24T01:20:59;2.60;;;1.63;;
39750;SDS011;37579;51.074;17.004;2023-04-24T01:23:29;1.58;;;1.40;;
39750;SDS011;37579;51.074;17.004;2023-04-24T01:25:55;2.10;;;1.40;;
39750;SDS011;37579;51.074;17.004;2023-04-24T01:28:21;2.88;;;1.80;;
39750;SDS011;37579;51.074;17.004;2023-04-24T01:30:47;2.50;;;1.63;;
39750;SDS011;37579;51.074;17.004;2023-04-24T01:33:13;2.67;;;1.65;;
39750;SDS011;37579;51.074;17.004;2023-04-24T01:35:39;2.40;;;1.60;;
39750;SDS011;37579;51.074;17.004;2023-04-24T01:38:05;2.28;;;1.73;;
39750;SDS011;37579;51.074;17.004;2023-04-24T01:40:32;2.63;;;1.77;;
39750;SDS011;37579;51.074;17.004;2023-04-24T01:42:58;4.18;;;1.80;;
39750;SDS011;37579;51.074;17.004;2023-04-24T01:45:24;2.22;;;1.83;;
39750;SDS011;37579;51.074;17.004;2023-04-24T01:47:50;2.20;;;1.45;;
39750;SDS011;37579;51.074;17.004;2023-04-24T01:50:16;2.33;;;1.65;;
39750;SDS011;37579;51.074;17.004;2023-04-24T01:52:42;2.72;;;1.80;;
39750;SDS011;37579;51.074;17.004;2023-04-24T01:55:09;1.70;;;1.60;;
39750;SDS011;37579;51.074;17.004;2023-04-24T01:57:36;2.30;;;1.75;;
39750;SDS011;37579;51.074;17.004;2023-04-24T02:00:03;2.33;;;1.63;;
39750;SDS011;37579;51.074;17.004;2023-04-24T02:02:41;2.80;;;1.50;;
39750;SDS011;37579;51.074;17.004;2023-04-24T02:05:08;2.90;;;1.95;;
39750;SDS011;37579;51.074;17.004;2023-04-24T02:07:37;2.10;;;1.42;;
39750;SDS011;37579;51.074;17.004;2023-04-24T02:10:03;1.75;;;1.38;;
39750;SDS011;37579;51.074;17.004;2023-04-24T02:12:30;1.98;;;1.35;;
39750;SDS011;37579;51.074;17.004;2023-04-24T02:14:56;2.55;;;1.65;;
39750;SDS011;37579;51.074;17.004;2023-04-24T02:17:22;1.90;;;1.48;;
39750;SDS011;37579;51.074;17.004;2023-04-24T02:19:48;2.65;;;1.73;;
39750;SDS011;37579;51.074;17.004;2023-04-24T02:22:15;2.50;;;1.55;;
39750;SDS011;37579;51.074;17.004;2023-04-24T02:24:41;2.15;;;1.50;;
39750;SDS011;37579;51.074;17.004;2023-04-24T02:27:07;2.67;;;1.80;;
39750;SDS011;37579;51.074;17.004;2023-04-24T02:29:33;2.60;;;1.83;;
39750;SDS011;37579;51.074;17.004;2023-04-24T02:31:59;2.05;;;1.50;;
39750;SDS011;37579;51.074;17.004;2023-04-24T02:34:25;3.15;;;1.73;;
39750;SDS011;37579;51.074;17.004;2023-04-24T02:36:51;2.83;;;1.80;;
39750;SDS011;37579;51.074;17.004;2023-04-24T02:39:18;1.98;;;1.60;;
39750;SDS011;37579;51.074;17.004;2023-04-24T02:41:44;1.92;;;1.52;;
39750;SDS011;37579;51.074;17.004;2023-04-24T02:44:10;2.10;;;1.77;;
39750;SDS011;37579;51.074;17.004;2023-04-24T02:46:36;2.00;;;1.52;;
39750;SDS011;37579;51.074;17.004;2023-04-24T02:49:02;2.00;;;1.48;;
39750;SDS011;37579;51.074;17.004;2023-04-24T02:51:28;2.22;;;1.50;;
39750;SDS011;37579;51.074;17.004;2023-04-24T02:53:54;2.53;;;1.65;;
39750;SDS011;37579;51.074;17.004;2023-04-24T02:56:20;2.42;;;1.80;;
39750;SDS011;37579;51.074;17.004;2023-04-24T02:58:46;1.80;;;1.42;;
39750;SDS011;37579;51.074;17.004;2023-04-24T03:01:12;2.05;;;1.83;;
39750;SDS011;37579;51.074;17.004;2023-04-24T03:03:38;2.13;;;1.65;;
39750;SDS011;37579;51.074;17.004;2023-04-24T03:06:05;2.55;;;1.58;;
39750;SDS011;37579;51.074;17.004;2023-04-24T03:08:34;2.42;;;1.75;;
39750;SDS011;37579;51.074;17.004;2023-04-24T03:11:00;1.38;;;1.27;;
39750;SDS011;37579;51.074;17.004;2023-04-24T03:13:26;1.75;;;1.33;;
39750;SDS011;37579;51.074;17.004;2023-04-24T03:15:52;2.00;;;1.50;;
39750;SDS011;37579;51.074;17.004;2023-04-24T03:18:19;2.47;;;1.80;;
39750;SDS011;37579;51.074;17.004;2023-04-24T03:20:46;2.20;;;1.80;;
39750;SDS011;37579;51.074;17.004;2023-04-24T03:23:13;2.38;;;1.52;;
39750;SDS011;37579;51.074;17.004;2023-04-24T03:25:39;2.25;;;1.73;;
39750;SDS011;37579;51.074;17.004;2023-04-24T03:28:06;2.10;;;1.60;;
39750;SDS011;37579;51.074;17.004;2023-04-24T03:30:37;2.22;;;1.45;;
39750;SDS011;37579;51.074;17.004;2023-04-24T03:33:04;2.63;;;1.60;;
39750;SDS011;37579;51.074;17.004;2023-04-24T03:35:34;1.95;;;1.70;;
39750;SDS011;37579;51.074;17.004;2023-04-24T03:38:03;2.10;;;1.60;;
39750;SDS011;37579;51.074;17.004;2023-04-24T03:40:41;2.17;;;1.70;;
39750;SDS011;37579;51.074;17.004;2023-04-24T03:43:27;2.38;;;1.67;;
39750;SDS011;37579;51.074;17.004;2023-04-24T03:45:55;2.35;;;1.83;;
39750;SDS011;37579;51.074;17.004;2023-04-24T03:48:21;2.15;;;1.48;;
39750;SDS011;37579;51.074;17.004;2023-04-24T03:50:47;1.70;;;1.45;;
39750;SDS011;37579;51.074;17.004;2023-04-24T03:53:13;2.15;;;1.50;;
39750;SDS011;37579;51.074;17.004;2023-04-24T03:55:40;2.47;;;1.58;;
39750;SDS011;37579;51.074;17.004;2023-04-24T03:58:07;2.08;;;1.70;;
39750;SDS011;37579;51.074;17.004;2023-04-24T04:00:33;1.90;;;1.70;;
39750;SDS011;37579;51.074;17.004;2023-04-24T04:03:22;1.98;;;1.30;;
39750;SDS011;37579;51.074;17.004;2023-04-24T04:05:48;3.03;;;1.60;;
39750;SDS011;37579;51.074;17.004;2023-04-24T04:08:14;2.20;;;1.80;;
39750;SDS011;37579;51.074;17.004;2023-04-24T04:10:40;2.05;;;1.77;;
39750;SDS011;37579;51.074;17.004;2023-04-24T04:13:06;2.05;;;1.42;;
39750;SDS011;37579;51.074;17.004;2023-04-24T04:15:32;3.08;;;1.83;;
39750;SDS011;37579;51.074;17.004;2023-04-24T04:17:58;2.28;;;1.60;;
39750;SDS011;37579;51.074;17.004;2023-04-24T04:20:24;2.88;;;1.67;;
39750;SDS011;37579;51.074;17.004;2023-04-24T04:22:50;2.35;;;1.52;;
39750;SDS011;37579;51.074;17.004;2023-04-24T04:25:32;2.05;;;1.55;;
39750;SDS011;37579;51.074;17.004;2023-04-24T04:27:59;2.13;;;1.55;;
39750;SDS011;37579;51.074;17.004;2023-04-24T04:30:25;2.78;;;1.83;;
39750;SDS011;37579;51.074;17.004;2023-04-24T04:32:56;1.90;;;1.60;;
39750;SDS011;37579;51.074;17.004;2023-04-24T04:35:22;2.22;;;1.60;;
39750;SDS011;37579;51.074;17.004;2023-04-24T04:37:50;2.00;;;1.50;;
39750;SDS011;37579;51.074;17.004;2023-04-24T04:40:27;1.95;;;1.50;;
39750;SDS011;37579;51.074;17.004;2023-04-24T04:42:59;1.85;;;1.60;;
39750;SDS011;37579;51.074;17.004;2023-04-24T04:45:29;1.70;;;1.20;;
39750;SDS011;37579;51.074;17.004;2023-04-24T04:48:14;1.77;;;1.40;;
39750;SDS011;37579;51.074;17.004;2023-04-24T04:50:42;2.03;;;1.40;;
39750;SDS011;37579;51.074;17.004;2023-04-24T04:53:09;2.05;;;1.60;;
39750;SDS011;37579;51.074;17.004;2023-04-24T04:55:37;2.25;;;1.40;;
39750;SDS011;37579;51.074;17.004;2023-04-24T04:58:17;1.63;;;1.45;;
39750;SDS011;37579;51.074;17.004;2023-04-24T05:00:46;1.88;;;1.65;;
39750;SDS011;37579;51.074;17.004;2023-04-24T05:03:22;2.00;;;1.48;;
39750;SDS011;37579;51.074;17.004;2023-04-24T05:06:08;2.33;;;1.63;;
39750;SDS011;37579;51.074;17.004;2023-04-24T05:08:36;2.13;;;1.60;;
39750;SDS011;37579;51.074;17.004;2023-04-24T05:11:05;1.92;;;1.38;;
39750;SDS011;37579;51.074;17.004;2023-04-24T05:13:31;2.33;;;1.67;;
39750;SDS011;37579;51.074;17.004;2023-04-24T05:15:58;4.10;;;1.80;;
39750;SDS011;37579;51.074;17.004;2023-04-24T05:18:25;2.55;;;1.67;;
39750;SDS011;37579;51.074;17.004;2023-04-24T05:20:51;2.65;;;1.75;;
39750;SDS011;37579;51.074;17.004;2023-04-24T05:23:17;1.75;;;1.52;;
39750;SDS011;37579;51.074;17.004;2023-04-24T05:25:45;2.45;;;1.70;;
39750;SDS011;37579;51.074;17.004;2023-04-24T05:28:13;2.60;;;1.45;;
39750;SDS011;37579;51.074;17.004;2023-04-24T05:30:39;2.15;;;1.70;;
39750;SDS011;37579;51.074;17.004;2023-04-24T05:33:05;4.15;;;1.80;;
39750;SDS011;37579;51.074;17.004;2023-04-24T05:35:33;3.25;;;2.00;;
39750;SDS011;37579;51.074;17.004;2023-04-24T05:38:00;2.42;;;1.85;;
39750;SDS011;37579;51.074;17.004;2023-04-24T05:40:26;3.38;;;1.95;;
39750;SDS011;37579;51.074;17.004;2023-04-24T05:42:52;2.92;;;2.20;;
39750;SDS011;37579;51.074;17.004;2023-04-24T05:45:19;2.42;;;1.75;;
39750;SDS011;37579;51.074;17.004;2023-04-24T05:47:45;2.92;;;1.92;;
39750;SDS011;37579;51.074;17.004;2023-04-24T05:50:11;2.00;;;1.60;;
39750;SDS011;37579;51.074;17.004;2023-04-24T05:52:37;2.38;;;1.88;;
39750;SDS011;37579;51.074;17.004;2023-04-24T05:55:11;2.97;;;2.05;;
39750;SDS011;37579;51.074;17.004;2023-04-24T05:57:39;3.15;;;2.10;;
39750;SDS011;37579;51.074;17.004;2023-04-24T06:00:05;2.45;;;1.85;;
39750;SDS011;37579;51.074;17.004;2023-04-24T06:02:49;3.83;;;1.90;;
39750;SDS011;37579;51.074;17.004;2023-04-24T06:05:15;2.00;;;1.77;;
39750;SDS011;37579;51.074;17.004;2023-04-24T06:07:43;2.45;;;1.83;;
39750;SDS011;37579;51.074;17.004;2023-04-24T06:10:10;2.38;;;1.67;;
39750;SDS011;37579;51.074;17.004;2023-04-24T06:12:42;3.38;;;1.98;;
39750;SDS011;37579;51.074;17.004;2023-04-24T06:15:14;3.97;;;2.13;;
39750;SDS011;37579;51.074;17.004;2023-04-24T06:17:52;2.58;;;1.88;;
39750;SDS011;37579;51.074;17.004;2023-04-24T06:20:19;3.90;;;2.08;;
39750;SDS011;37579;51.074;17.004;2023-04-24T06:22:45;3.17;;;1.85;;
39750;SDS011;37579;51.074;17.004;2023-04-24T06:25:11;2.25;;;1.83;;
39750;SDS011;37579;51.074;17.004;2023-04-24T06:27:37;4.40;;;1.90;;
39750;SDS011;37579;51.074;17.004;2023-04-24T06:30:03;2.97;;;1.80;;
39750;SDS011;37579;51.074;17.004;2023-04-24T06:32:29;4.85;;;1.75;;
39750;SDS011;37579;51.074;17.004;2023-04-24T06:34:56;2.03;;;1.83;;
39750;SDS011;37579;51.074;17.004;2023-04-24T06:37:21;3.38;;;2.42;;
39750;SDS011;37579;51.074;17.004;2023-04-24T06:39:47;2.60;;;1.92;;
39750;SDS011;37579;51.074;17.004;2023-04-24T06:42:13;2.28;;;1.77;;
39750;SDS011;37579;51.074;17.004;2023-04-24T06:44:42;3.08;;;1.80;;
39750;SDS011;37579;51.074;17.004;2023-04-24T06:47:08;2.35;;;1.85;;
39750;SDS011;37579;51.074;17.004;2023-04-24T06:49:35;7.20;;;2.45;;
39750;SDS011;37579;51.074;17.004;2023-04-24T06:52:05;4.63;;;2.10;;
39750;SDS011;37579;51.074;17.004;2023-04-24T06:54:31;3.58;;;1.80;;
39750;SDS011;37579;51.074;17.004;2023-04-24T06:56:58;2.55;;;1.83;;
39750;SDS011;37579;51.074;17.004;2023-04-24T06:59:25;6.18;;;2.30;;
39750;SDS011;37579;51.074;17.004;2023-04-24T07:01:52;5.78;;;3.50;;
39750;SDS011;37579;51.074;17.004;2023-04-24T07:04:18;7.03;;;4.43;;
39750;SDS011;37579;51.074;17.004;2023-04-24T07:06:45;6.57;;;4.50;;
39750;SDS011;37579;51.074;17.004;2023-04-24T07:09:11;7.10;;;4.15;;
39750;SDS011;37579;51.074;17.004;2023-04-24T07:11:38;17.48;;;5.00;;
39750;SDS011;37579;51.074;17.004;2023-04-24T07:14:06;10.27;;;4.28;;
39750;SDS011;37579;51.074;17.004;2023-04-24T07:16:32;9.98;;;4.57;;
39750;SDS011;37579;51.074;17.004;2023-04-24T07:18:58;7.70;;;4.40;;
39750;SDS011;37579;51.074;17.004;2023-04-24T07:21:24;6.75;;;4.32;;
39750;SDS011;37579;51.074;17.004;2023-04-24T07:23:50;5.72;;;4.72;;
39750;SDS011;37579;51.074;17.004;2023-04-24T07:26:16;7.45;;;4.38;;
39750;SDS011;37579;51.074;17.004;2023-04-24T07:28:42;6.22;;;3.60;;
39750;SDS011;37579;51.074;17.004;2023-04-24T07:31:08;7.00;;;3.60;;
39750;SDS011;37579;51.074;17.004;2023-04-24T07:33:36;5.00;;;3.83;;
39750;SDS011;37579;51.074;17.004;2023-04-24T07:36:03;5.07;;;3.00;;
39750;SDS011;37579;51.074;17.004;2023-04-24T07:38:29;7.13;;;3.30;;
39750;SDS011;37579;51.074;17.004;2023-04-24T07:40:56;5.43;;;4.00;;
39750;SDS011;37579;51.074;17.004;2023-04-24T07:43:22;5.85;;;4.13;;
39750;SDS011;37579;51.074;17.004;2023-04-24T07:45:51;6.93;;;3.80;;
39750;SDS011;37579;51.074;17.004;2023-04-24T07:48:18;6.70;;;3.85;;
39750;SDS011;37579;51.074;17.004;2023-04-24T07:50:44;6.50;;;3.90;;
39750;SDS011;37579;51.074;17.004;2023-04-24T07:53:10;8.50;;;4.03;;
39750;SDS011;37579;51.074;17.004;2023-04-24T07:55:37;6.93;;;4.00;;
39750;SDS011;37579;51.074;17.004;2023-04-24T07:58:03;6.70;;;4.15;;
39750;SDS011;37579;51.074;17.004;2023-04-24T08:00:29;5.28;;;3.53;;
39750;SDS011;37579;51.074;17.004;2023-04-24T08:02:55;6.78;;;3.97;;
39750;SDS011;37579;51.074;17.004;2023-04-24T08:05:21;5.22;;;3.90;;
39750;SDS011;37579;51.074;17.004;2023-04-24T08:07:46;6.03;;;3.92;;
39750;SDS011;37579;51.074;17.004;2023-04-24T08:10:15;6.07;;;3.85;;
39750;SDS011;37579;51.074;17.004;2023-04-24T08:12:41;4.38;;;3.58;;
39750;SDS011;37579;51.074;17.004;2023-04-24T08:15:07;5.90;;;3.60;;
39750;SDS011;37579;51.074;17.004;2023-04-24T08:17:36;7.75;;;3.72;;
39750;SDS011;37579;51.074;17.004;2023-04-24T08:20:02;5.45;;;3.75;;
39750;SDS011;37579;51.074;17.004;2023-04-24T08:22:30;6.82;;;3.83;;
39750;SDS011;37579;51.074;17.004;2023-04-24T08:24:56;6.53;;;3.80;;
39750;SDS011;37579;51.074;17.004;2023-04-24T08:27:23;5.55;;;3.53;;
39750;SDS011;37579;51.074;17.004;2023-04-24T08:29:49;6.57;;;3.60;;
39750;SDS011;37579;51.074;17.004;2023-04-24T08:32:15;6.53;;;4.00;;
39750;SDS011;37579;51.074;17.004;2023-04-24T08:34:42;8.27;;;3.30;;
39750;SDS011;37579;51.074;17.004;2023-04-24T08:37:07;6.80;;;3.13;;
39750;SDS011;37579;51.074;17.004;2023-04-24T08:39:33;4.90;;;3.40;;
39750;SDS011;37579;51.074;17.004;2023-04-24T08:41:59;5.97;;;3.25;;
39750;SDS011;37579;51.074;17.004;2023-04-24T08:44:31;8.25;;;3.60;;
39750;SDS011;37579;51.074;17.004;2023-04-24T08:46:57;5.18;;;3.33;;
39750;SDS011;37579;51.074;17.004;2023-04-24T08:49:24;9.88;;;3.30;;
39750;SDS011;37579;51.074;17.004;2023-04-24T08:51:50;5.53;;;3.22;;
39750;SDS011;37579;51.074;17.004;2023-04-24T08:54:18;7.13;;;3.33;;
39750;SDS011;37579;51.074;17.004;2023-04-24T08:56:44;6.00;;;3.25;;
39750;SDS011;37579;51.074;17.004;2023-04-24T08:59:14;4.78;;;3.08;;
39750;SDS011;37579;51.074;17.004;2023-04-24T09:01:41;7.45;;;3.08;;
39750;SDS011;37579;51.074;17.004;2023-04-24T09:04:08;5.95;;;2.90;;
39750;SDS011;37579;51.074;17.004;2023-04-24T09:06:35;5.13;;;3.22;;
39750;SDS011;37579;51.074;17.004;2023-04-24T09:09:02;5.07;;;2.75;;
39750;SDS011;37579;51.074;17.004;2023-04-24T09:11:31;4.40;;;2.88;;
39750;SDS011;37579;51.074;17.004;2023-04-24T09:14:00;5.25;;;3.50;;
39750;SDS011;37579;51.074;17.004;2023-04-24T09:16:26;4.10;;;3.03;;
39750;SDS011;37579;51.074;17.004;2023-04-24T09:18:52;7.53;;;3.08;;
39750;SDS011;37579;51.074;17.004;2023-04-24T09:21:20;4.18;;;2.63;;
39750;SDS011;37579;51.074;17.004;2023-04-24T09:23:47;3.70;;;2.92;;
39750;SDS011;37579;51.074;17.004;2023-04-24T09:26:30;5.28;;;2.85;;
39750;SDS011;37579;51.074;17.004;2023-04-24T09:28:58;5.93;;;3.33;;
39750;SDS011;37579;51.074;17.004;2023-04-24T09:31:26;4.18;;;2.78;;
39750;SDS011;37579;51.074;17.004;2023-04-24T09:33:56;4.75;;;2.75;;
39750;SDS011;37579;51.074;17.004;2023-04-24T09:36:26;3.70;;;2.83;;
39750;SDS011;37579;51.074;17.004;2023-04-24T09:39:00;8.63;;;2.95;;
39750;SDS011;37579;51.074;17.004;2023-04-24T09:41:26;7.90;;;3.50;;
39750;SDS011;37579;51.074;17.004;2023-04-24T09:43:54;5.53;;;2.70;;
39750;SDS011;37579;51.074;17.004;2023-04-24T09:46:20;6.07;;;4.28;;
39750;SDS011;37579;51.074;17.004;2023-04-24T09:48:53;5.47;;;2.78;;
39750;SDS011;37579;51.074;17.004;2023-04-24T09:51:19;4.20;;;2.33;;
39750;SDS011;37579;51.074;17.004;2023-04-24T09:54:00;5.88;;;2.33;;
39750;SDS011;37579;51.074;17.004;2023-04-24T09:56:26;4.68;;;2.60;;
39750;SDS011;37579;51.074;17.004;2023-04-24T09:58:52;7.43;;;2.58;;
39750;SDS011;37579;51.074;17.004;2023-04-24T10:01:29;3.90;;;2.78;;
39750;SDS011;37579;51.074;17.004;2023-04-24T10:03:56;7.18;;;3.00;;
39750;SDS011;37579;51.074;17.004;2023-04-24T10:06:21;4.03;;;2.63;;
39750;SDS011;37579;51.074;17.004;2023-04-24T10:08:47;5.70;;;3.22;;
39750;SDS011;37579;51.074;17.004;2023-04-24T10:11:14;5.65;;;3.20;;
39750;SDS011;37579;51.074;17.004;2023-04-24T10:13:40;5.53;;;2.65;;
39750;SDS011;37579;51.074;17.004;2023-04-24T10:16:06;5.82;;;2.78;;
39750;SDS011;37579;51.074;17.004;2023-04-24T10:18:32;2.97;;;2.60;;
39750;SDS011;37579;51.074;17.004;2023-04-24T10:21:00;4.43;;;3.03;;
39750;SDS011;37579;51.074;17.004;2023-04-24T10:23:26;5.03;;;3.30;;
39750;SDS011;37579;51.074;17.004;2023-04-24T10:25:53;4.53;;;3.40;;
39750;SDS011;37579;51.074;17.004;2023-04-24T10:28:19;6.28;;;3.20;;
39750;SDS011;37579;51.074;17.004;2023-04-24T10:30:46;5.35;;;3.58;;
39750;SDS011;37579;51.074;17.004;2023-04-24T10:33:13;6.43;;;4.05;;
39750;SDS011;37579;51.074;17.004;2023-04-24T10:35:44;5.43;;;3.50;;
39750;SDS011;37579;51.074;17.004;2023-04-24T10:38:14;5.45;;;3.53;;
39750;SDS011;37579;51.074;17.004;2023-04-24T10:40:43;9.40;;;3.90;;
39750;SDS011;37579;51.074;17.004;2023-04-24T10:43:09;6.05;;;4.03;;
39750;SDS011;37579;51.074;17.004;2023-04-24T10:45:37;7.50;;;3.58;;
39750;SDS011;37579;51.074;17.004;2023-04-24T10:48:04;6.40;;;3.88;;
39750;SDS011;37579;51.074;17.004;2023-04-24T10:50:45;4.73;;;3.80;;
39750;SDS011;37579;51.074;17.004;2023-04-24T10:53:19;9.73;;;4.00;;
39750;SDS011;37579;51.074;17.004;2023-04-24T10:58:23;6.22;;;3.55;;
39750;SDS011;37579;51.074;17.004;2023-04-24T11:00:57;5.45;;;3.63;;
39750;SDS011;37579;51.074;17.004;2023-04-24T11:03:28;5.60;;;4.10;;
39750;SDS011;37579;51.074;17.004;2023-04-24T11:05:59;7.28;;;3.60;;
39750;SDS011;37579;51.074;17.004;2023-04-24T11:08:44;6.18;;;3.90;;
39750;SDS011;37579;51.074;17.004;2023-04-24T11:11:17;5.95;;;3.83;;
39750;SDS011;37579;51.074;17.004;2023-04-24T11:16:20;5.65;;;3.97;;
39750;SDS011;37579;51.074;17.004;2023-04-24T11:18:51;5.90;;;4.40;;
39750;SDS011;37579;51.074;17.004;2023-04-24T11:21:25;6.10;;;4.75;;
39750;SDS011;37579;51.074;17.004;2023-04-24T11:23:56;6.30;;;4.47;;
39750;SDS011;37579;51.074;17.004;2023-04-24T11:26:22;6.40;;;4.50;;
39750;SDS011;37579;51.074;17.004;2023-04-24T11:28:55;7.72;;;4.70;;
39750;SDS011;37579;51.074;17.004;2023-04-24T11:31:36;5.03;;;4.25;;
39750;SDS011;37579;51.074;17.004;2023-04-24T11:34:09;6.88;;;4.65;;
39750;SDS011;37579;51.074;17.004;2023-04-24T11:36:38;6.65;;;4.43;;
39750;SDS011;37579;51.074;17.004;2023-04-24T11:39:04;5.20;;;3.97;;
39750;SDS011;37579;51.074;17.004;2023-04-24T11:41:30;4.72;;;4.03;;
39750;SDS011;37579;51.074;17.004;2023-04-24T11:43:57;6.55;;;3.95;;
39750;SDS011;37579;51.074;17.004;2023-04-24T11:46:26;7.95;;;3.78;;
39750;SDS011;37579;51.074;17.004;2023-04-24T11:51:23;7.78;;;4.18;;
39750;SDS011;37579;51.074;17.004;2023-04-24T11:53:50;5.43;;;3.72;;
39750;SDS011;37579;51.074;17.004;2023-04-24T11:56:21;8.57;;;4.95;;
39750;SDS011;37579;51.074;17.004;2023-04-24T11:58:47;5.88;;;3.70;;
39750;SDS011;37579;51.074;17.004;2023-04-24T12:01:13;6.47;;;4.05;;
39750;SDS011;37579;51.074;17.004;2023-04-24T12:03:39;5.78;;;3.60;;
39750;SDS011;37579;51.074;17.004;2023-04-24T12:06:08;6.78;;;4.40;;
39750;SDS011;37579;51.074;17.004;2023-04-24T12:08:36;4.82;;;3.90;;
39750;SDS011;37579;51.074;17.004;2023-04-24T12:11:02;6.82;;;3.60;;
39750;SDS011;37579;51.074;17.004;2023-04-24T12:13:29;4.85;;;3.38;;
39750;SDS011;37579;51.074;17.004;2023-04-24T12:15:59;5.72;;;3.95;;
39750;SDS011;37579;51.074;17.004;2023-04-24T12:18:26;5.78;;;3.75;;
39750;SDS011;37579;51.074;17.004;2023-04-24T12:20:52;5.25;;;3.85;;
39750;SDS011;37579;51.074;17.004;2023-04-24T12:23:37;5.68;;;3.72;;
39750;SDS011;37579;51.074;17.004;2023-04-24T12:26:03;5.22;;;3.35;;
39750;SDS011;37579;51.074;17.004;2023-04-24T12:28:36;7.50;;;3.72;;
39750;SDS011;37579;51.074;17.004;2023-04-24T12:31:02;3.75;;;3.05;;
39750;SDS011;37579;51.074;17.004;2023-04-24T12:33:31;5.50;;;3.45;;
39750;SDS011;37579;51.074;17.004;2023-04-24T12:35:59;6.55;;;3.28;;
39750;SDS011;37579;51.074;17.004;2023-04-24T12:38:26;3.95;;;3.08;;
39750;SDS011;37579;51.074;17.004;2023-04-24T12:41:04;3.83;;;3.00;;
39750;SDS011;37579;51.074;17.004;2023-04-24T12:43:31;5.90;;;3.67;;
39750;SDS011;37579;51.074;17.004;2023-04-24T12:45:57;5.60;;;3.33;;
39750;SDS011;37579;51.074;17.004;2023-04-24T12:48:25;4.53;;;3.42;;
39750;SDS011;37579;51.074;17.004;2023-04-24T12:50:51;5.28;;;3.53;;
39750;SDS011;37579;51.074;17.004;2023-04-24T12:53:17;4.72;;;3.10;;
39750;SDS011;37579;51.074;17.004;2023-04-24T12:55:43;5.78;;;3.00;;
39750;SDS011;37579;51.074;17.004;2023-04-24T12:58:18;5.93;;;3.20;;
39750;SDS011;37579;51.074;17.004;2023-04-24T13:00:45;4.82;;;3.40;;
39750;SDS011;37579;51.074;17.004;2023-04-24T13:03:12;4.25;;;2.55;;
39750;SDS011;37579;51.074;17.004;2023-04-24T13:05:38;4.55;;;3.03;;
39750;SDS011;37579;51.074;17.004;2023-04-24T13:08:03;2.97;;;2.58;;
39750;SDS011;37579;51.074;17.004;2023-04-24T13:10:30;4.25;;;2.97;;
39750;SDS011;37579;51.074;17.004;2023-04-24T13:12:56;3.83;;;2.85;;
39750;SDS011;37579;51.074;17.004;2023-04-24T13:15:22;2.90;;;2.25;;
39750;SDS011;37579;51.074;17.004;2023-04-24T13:17:48;3.42;;;2.13;;
39750;SDS011;37579;51.074;17.004;2023-04-24T13:20:14;3.65;;;1.92;;
39750;SDS011;37579;51.074;17.004;2023-04-24T13:22:40;2.88;;;2.13;;
39750;SDS011;37579;51.074;17.004;2023-04-24T13:25:06;3.08;;;2.17;;
39750;SDS011;37579;51.074;17.004;2023-04-24T13:27:32;3.35;;;2.25;;
39750;SDS011;37579;51.074;17.004;2023-04-24T13:29:58;3.65;;;2.25;;
39750;SDS011;37579;51.074;17.004;2023-04-24T13:32:24;5.72;;;2.25;;
39750;SDS011;37579;51.074;17.004;2023-04-24T13:34:50;3.17;;;1.90;;
39750;SDS011;37579;51.074;17.004;2023-04-24T13:37:16;2.95;;;2.08;;
39750;SDS011;37579;51.074;17.004;2023-04-24T13:39:42;3.22;;;1.77;;
39750;SDS011;37579;51.074;17.004;2023-04-24T13:42:08;4.93;;;2.05;;
39750;SDS011;37579;51.074;17.004;2023-04-24T13:44:34;3.22;;;1.98;;
39750;SDS011;37579;51.074;17.004;2023-04-24T13:47:00;3.20;;;2.10;;
39750;SDS011;37579;51.074;17.004;2023-04-24T13:49:26;3.65;;;2.13;;
39750;SDS011;37579;51.074;17.004;2023-04-24T13:51:53;3.03;;;1.77;;
39750;SDS011;37579;51.074;17.004;2023-04-24T13:54:19;5.28;;;2.10;;
39750;SDS011;37579;51.074;17.004;2023-04-24T13:56:45;5.70;;;2.13;;
39750;SDS011;37579;51.074;17.004;2023-04-24T13:59:14;2.60;;;1.80;;
39750;SDS011;37579;51.074;17.004;2023-04-24T14:01:40;3.65;;;1.92;;
39750;SDS011;37579;51.074;17.004;2023-04-24T14:04:06;8.00;;;2.33;;
39750;SDS011;37579;51.074;17.004;2023-04-24T14:06:32;2.33;;;1.90;;
39750;SDS011;37579;51.074;17.004;2023-04-24T14:08:57;2.85;;;1.85;;
39750;SDS011;37579;51.074;17.004;2023-04-24T14:11:23;2.25;;;1.67;;
39750;SDS011;37579;51.074;17.004;2023-04-24T14:13:49;2.15;;;1.77;;
39750;SDS011;37579;51.074;17.004;2023-04-24T14:16:15;2.92;;;2.03;;
39750;SDS011;37579;51.074;17.004;2023-04-24T14:18:41;2.90;;;1.50;;
39750;SDS011;37579;51.074;17.004;2023-04-24T14:21:07;2.72;;;1.83;;
39750;SDS011;37579;51.074;17.004;2023-04-24T14:23:33;2.22;;;1.83;;
39750;SDS011;37579;51.074;17.004;2023-04-24T14:25:59;2.88;;;1.63;;
39750;SDS011;37579;51.074;17.004;2023-04-24T14:28:25;3.13;;;1.70;;
39750;SDS011;37579;51.074;17.004;2023-04-24T14:30:51;3.38;;;1.52;;
39750;SDS011;37579;51.074;17.004;2023-04-24T14:33:18;3.08;;;1.70;;
39750;SDS011;37579;51.074;17.004;2023-04-24T14:35:44;2.90;;;1.73;;
39750;SDS011;37579;51.074;17.004;2023-04-24T14:38:10;4.45;;;1.67;;
39750;SDS011;37579;51.074;17.004;2023-04-24T14:40:37;4.03;;;1.35;;
39750;SDS011;37579;51.074;17.004;2023-04-24T14:43:03;2.25;;;1.50;;